Time;durP1;ratioP1;P1;durP2;ratioP2;P2;SDS_P1;SDS_P2;PMS_P1;PMS_P2;Temp;Humidity;BMP_temperature;BMP_pressure;BME280_temperature;BME280_humidity;BME280_pressure;Samples;Min_cycle;Max_cycle;Signal;HPM_P1;HPM_P2
2021/12/14 00:02:16;;;;;;;7.03;5.93;;;;;;;4.46;72.09;99936.47;5033333;28;20459;-79
2021/12/14 00:04:43;;;;;;;6.43;5.70;;;;;;;4.30;72.05;99907.31;5035565;28;20026;-78
2021/12/14 00:07:13;;;;;;;6.90;6.00;;;;;;;4.51;72.29;99936.06;5035964;28;20037;-78
2021/12/14 00:09:41;;;;;;;5.40;4.90;;;;;;;4.54;72.31;99932.38;5034143;28;20103;-79
2021/12/14 00:12:32;;;;;;;5.63;5.03;;;;;;;4.51;72.07;99936.06;5035612;28;20071;-78
2021/12/14 00:15:05;;;;;;;7.33;6.57;;;;;;;4.51;71.85;99945.72;5035532;28;20568;-79
2021/12/14 00:17:41;;;;;;;5.20;4.67;;;;;;;4.13;71.95;99868.72;5035284;28;20028;-79
2021/12/14 00:20:37;;;;;;;5.70;4.90;;;;;;;4.23;72.37;99915.81;5034966;28;20071;-79
2021/12/14 00:25:42;;;;;;;5.53;4.93;;;;;;;4.05;71.64;99903.31;5034446;28;20036;-79
2021/12/14 00:28:15;;;;;;;5.93;5.13;;;;;;;4.35;71.94;99935.69;5034809;28;20036;-79
2021/12/14 00:30:43;;;;;;;5.70;5.10;;;;;;;4.43;71.90;99948.94;5035068;28;20487;-79
2021/12/14 00:33:12;;;;;;;5.40;4.70;;;;;;;3.93;71.93;99883.44;5034816;28;20507;-79
2021/12/14 00:35:39;;;;;;;5.63;4.80;;;;;;;4.13;72.11;99929.63;5034536;28;20029;-79
2021/12/14 00:38:05;;;;;;;5.87;4.70;;;;;;;3.97;71.79;99907.53;5034177;28;20049;-79
2021/12/14 00:40:38;;;;;;;5.73;5.10;;;;;;;3.99;71.93;99903.81;5034314;28;20026;-80
2021/12/14 00:43:04;;;;;;;5.30;4.80;;;;;;;4.38;71.85;99965.00;5034550;28;20049;-79
2021/12/14 00:45:33;;;;;;;5.50;4.87;;;;;;;3.73;71.97;99871.19;5034638;28;20032;-79
2021/12/14 00:47:59;;;;;;;6.43;5.33;;;;;;;3.81;72.13;99895.72;5034526;28;20034;-79
2021/12/14 00:50:27;;;;;;;8.03;5.70;;;;;;;3.97;72.00;99917.97;5034112;28;20026;-79
2021/12/14 00:52:52;;;;;;;5.50;5.00;;;;;;;3.46;72.12;99841.16;5034077;28;20026;-78
2021/12/14 00:55:30;;;;;;;5.30;4.80;;;;;;;4.27;71.58;99961.63;5034294;28;20032;-78
2021/12/14 00:57:56;;;;;;;5.77;5.10;;;;;;;4.21;71.76;99959.53;5034709;28;20119;-79
2021/12/14 01:00:28;;;;;;;5.10;4.60;;;;;;;4.05;71.81;99942.50;5033567;28;20033;-79
2021/12/14 01:02:54;;;;;;;4.88;4.47;;;;;;;4.06;72.24;99946.78;5033901;28;20052;-78
2021/12/14 01:05:24;;;;;;;6.43;5.73;;;;;;;4.16;72.03;99957.31;5035166;28;20065;-78
2021/12/14 01:07:50;;;;;;;6.63;5.93;;;;;;;3.86;71.99;99923.25;5035592;28;20028;-78
2021/12/14 01:10:27;;;;;;;6.23;5.27;;;;;;;4.17;71.90;99961.56;5034310;28;20045;-78
2021/12/14 01:12:59;;;;;;;8.00;6.20;;;;;;;4.18;71.83;99959.78;5034979;28;20021;-79
2021/12/14 01:15:58;;;;;;;5.35;4.40;;;;;;;3.68;71.80;99891.59;5035533;28;20029;-78
2021/12/14 01:18:44;;;;;;;6.27;5.40;;;;;;;3.91;71.77;99902.81;5034296;28;20112;-78
2021/12/14 01:21:42;;;;;;;5.73;5.00;;;;;;;4.02;72.00;99948.00;5035078;28;20025;-78
2021/12/14 01:24:23;;;;;;;5.97;5.37;;;;;;;4.00;71.62;99949.06;5035255;28;20029;-78
2021/12/14 01:26:49;;;;;;;5.97;5.20;;;;;;;3.22;72.05;99818.84;5034117;28;20034;-78
2021/12/14 01:29:16;;;;;;;5.17;4.63;;;;;;;3.99;72.39;99952.63;5035518;28;20022;-78
2021/12/14 01:31:43;;;;;;;4.43;3.97;;;;;;;3.46;72.44;99877.69;5034946;28;20025;-78
2021/12/14 01:34:20;;;;;;;4.70;4.30;;;;;;;3.56;72.27;99888.22;5034745;28;20398;-78
2021/12/14 01:36:51;;;;;;;5.10;4.60;;;;;;;3.79;72.51;99923.75;5034441;28;20057;-79
2021/12/14 01:42:06;;;;;;;5.33;4.83;;;;;;;3.96;72.11;99927.59;5034897;28;20422;-79
2021/12/14 01:44:44;;;;;;;3.80;3.50;;;;;;;3.86;71.95;99915.41;5034770;28;20029;-78
2021/12/14 01:47:22;;;;;;;4.70;4.17;;;;;;;4.00;72.25;99938.63;5035063;28;20422;-79
2021/12/14 01:49:48;;;;;;;4.47;3.67;;;;;;;3.73;71.84;99890.31;5033708;28;20430;-78
2021/12/14 01:52:21;;;;;;;4.70;4.10;;;;;;;3.78;72.03;99893.38;5035384;28;20029;-78
2021/12/14 01:54:52;;;;;;;4.50;4.00;;;;;;;3.59;72.02;99880.13;5033937;28;20037;-78
2021/12/14 01:57:21;;;;;;;6.00;4.77;;;;;;;3.96;72.28;99937.22;5035249;28;20138;-78
2021/12/14 01:59:49;;;;;;;4.60;4.00;;;;;;;3.98;72.23;99935.31;5035069;28;20104;-78
2021/12/14 02:02:30;;;;;;;6.03;4.93;;;;;;;3.89;72.07;99936.06;5034275;28;20027;-77
2021/12/14 02:04:58;;;;;;;3.20;2.85;;;;;;;3.72;72.38;99912.16;5034537;28;20033;-79
2021/12/14 02:07:26;;;;;;;4.83;4.30;;;;;;;3.79;72.45;99921.16;5034585;28;20033;-78
2021/12/14 02:09:56;;;;;;;5.40;4.57;;;;;;;3.90;72.45;99949.00;5034986;28;20025;-79
2021/12/14 02:12:26;;;;;;;4.67;3.73;;;;;;;3.88;72.21;99942.25;5034321;28;20091;-78
2021/12/14 02:14:59;;;;;;;3.57;3.27;;;;;;;3.66;72.11;99927.47;5035102;28;20025;-78
2021/12/14 02:17:25;;;;;;;3.57;3.27;;;;;;;3.24;72.42;99879.56;5034850;28;20033;-78
2021/12/14 02:19:51;;;;;;;3.50;3.20;;;;;;;3.50;72.58;99904.38;5034462;28;20029;-78
2021/12/14 02:22:17;;;;;;;3.60;3.30;;;;;;;3.32;72.78;99911.91;5034993;28;20560;-78
2021/12/14 02:24:50;;;;;;;3.73;3.27;;;;;;;3.66;72.66;99941.34;5034237;28;20509;-79
2021/12/14 02:27:16;;;;;;;4.40;4.00;;;;;;;3.59;72.62;99945.41;5033758;28;20021;-79
2021/12/14 02:29:46;;;;;;;4.57;3.63;;;;;;;3.52;72.96;99925.97;5034247;28;20057;-79
2021/12/14 02:32:16;;;;;;;3.80;3.50;;;;;;;3.56;72.61;99937.00;5034307;28;20021;-78
2021/12/14 02:34:45;;;;;;;3.47;3.13;;;;;;;3.64;72.67;99950.25;5034248;28;20053;-79
2021/12/14 02:37:11;;;;;;;4.37;3.53;;;;;;;3.46;73.03;99909.03;5033850;28;20057;-79
2021/12/14 02:42:18;;;;;;;4.18;3.55;;;;;;;3.69;72.50;99969.81;5033774;28;20037;-79
2021/12/14 02:44:49;;;;;;;3.70;3.40;;;;;;;3.72;72.69;99946.09;5034452;28;20061;-78
2021/12/14 02:47:17;;;;;;;8.23;4.20;;;;;;;3.26;72.46;99870.66;5033238;28;20029;-79
2021/12/14 02:49:45;;;;;;;4.33;3.30;;;;;;;3.75;72.81;99952.84;5033141;28;20418;-78
2021/12/14 02:52:20;;;;;;;3.87;3.50;;;;;;;3.67;72.59;99929.94;5033748;28;20542;-79
2021/12/14 02:54:53;;;;;;;4.00;3.20;;;;;;;3.62;72.63;99937.31;5033663;28;20028;-79
2021/12/14 02:57:31;;;;;;;3.57;3.27;;;;;;;3.22;72.65;99881.47;5033799;28;20033;-80
2021/12/14 02:59:56;;;;;;;3.50;3.20;;;;;;;3.73;72.82;99966.03;5033162;28;20048;-79
2021/12/14 03:02:29;;;;;;;3.90;3.50;;;;;;;3.26;72.75;99890.69;5033685;28;20112;-79
2021/12/14 03:04:58;;;;;;;4.87;3.33;;;;;;;3.76;72.87;99960.56;5033752;28;20387;-79
2021/12/14 03:07:27;;;;;;;3.73;3.40;;;;;;;3.33;72.37;99882.25;5033670;28;20025;-78
2021/12/14 03:10:05;;;;;;;3.67;3.30;;;;;;;3.74;72.64;99938.97;5033110;28;20029;-79
2021/12/14 03:12:40;;;;;;;3.30;2.93;;;;;;;3.82;72.29;99949.63;5033528;28;20112;-79
2021/12/14 03:15:18;;;;;;;5.17;4.27;;;;;;;3.44;72.42;99890.03;5033557;28;20491;-79
2021/12/14 03:17:45;;;;;;;3.67;3.23;;;;;;;3.50;72.58;99904.38;5033689;28;20506;-79
2021/12/14 03:20:19;;;;;;;2.83;2.63;;;;;;;3.74;72.43;99949.41;5032462;28;20418;-79
2021/12/14 03:23:08;;;;;;;2.80;2.60;;;;;;;3.73;72.85;99955.59;5033440;28;20032;-79
2021/12/14 03:25:36;;;;;;;2.50;2.30;;;;;;;3.41;72.64;99894.69;5033663;28;20021;-78
2021/12/14 03:28:02;;;;;;;3.07;2.57;;;;;;;3.83;72.74;99953.88;5032152;28;20033;-79
2021/12/14 03:30:33;;;;;;;2.77;2.40;;;;;;;3.28;72.71;99875.75;5033553;28;20025;-78
2021/12/14 03:33:07;;;;;;;2.77;2.50;;;;;;;3.31;72.45;99889.38;5032068;28;20025;-78
2021/12/14 03:35:41;;;;;;;2.60;2.20;;;;;;;3.72;72.45;99956.53;5032971;28;20272;-78
2021/12/14 03:38:16;;;;;;;2.30;2.10;;;;;;;3.67;72.77;99955.22;5036663;28;20053;-78
2021/12/14 03:40:43;;;;;;;2.67;2.47;;;;;;;3.21;72.82;99893.69;5037503;28;20033;-78
2021/12/14 03:43:12;;;;;;;2.80;2.60;;;;;;;3.63;72.82;99952.03;5037405;28;20116;-78
2021/12/14 03:45:38;;;;;;;3.17;2.40;;;;;;;3.34;72.62;99903.97;5037185;28;20029;-79
2021/12/14 03:48:04;;;;;;;2.90;2.57;;;;;;;3.51;72.87;99939.97;5037103;28;20071;-79
2021/12/14 03:50:35;;;;;;;3.17;2.83;;;;;;;3.61;72.67;99953.94;5037006;28;20079;-79
2021/12/14 03:53:02;;;;;;;3.00;2.70;;;;;;;3.58;72.73;99951.59;5037285;28;20079;-78
2021/12/14 03:55:32;;;;;;;2.30;2.10;;;;;;;3.41;73.02;99924.22;5036085;28;20479;-78
2021/12/14 03:57:58;;;;;;;2.70;2.50;;;;;;;3.57;72.90;99951.69;5036462;28;20029;-78
2021/12/14 04:00:32;;;;;;;2.40;2.20;;;;;;;3.41;72.96;99934.66;5036822;28;20030;-78
2021/12/14 04:03:02;;;;;;;2.77;2.23;;;;;;;3.13;72.58;99890.84;5036621;28;20033;-79
2021/12/14 04:05:27;;;;;;;2.87;2.47;;;;;;;3.36;73.28;99944.63;5036848;28;20014;-79
2021/12/14 04:07:53;;;;;;;2.27;2.07;;;;;;;3.39;73.55;99954.84;5036806;28;20021;-79
2021/12/14 04:10:26;;;;;;;3.47;3.17;;;;;;;3.05;73.33;99901.06;5036630;28;20479;-78
2021/12/14 04:12:52;;;;;;;3.10;2.73;;;;;;;3.03;73.24;99893.34;5036488;28;20021;-79
2021/12/14 04:15:18;;;;;;;2.80;2.60;;;;;;;3.26;73.38;99935.88;5035897;28;20490;-79
2021/12/14 04:17:44;;;;;;;4.03;3.23;;;;;;;3.04;72.99;99905.44;5036654;28;20032;-78
2021/12/14 04:20:19;;;;;;;3.43;3.13;;;;;;;3.38;73.33;99945.34;5036289;28;20549;-79
2021/12/14 04:22:48;;;;;;;3.70;3.23;;;;;;;3.04;73.00;99907.22;5035585;28;20420;-79
2021/12/14 04:25:16;;;;;;;5.17;3.70;;;;;;;3.07;72.90;99896.56;5035189;28;20030;-79
2021/12/14 04:27:42;;;;;;;4.20;3.30;;;;;;;3.06;73.43;99903.56;5036535;28;20084;-79
2021/12/14 04:30:11;;;;;;;4.27;2.90;;;;;;;3.24;73.15;99945.63;5036500;28;20032;-80
2021/12/14 04:32:38;;;;;;;3.63;3.10;;;;;;;2.88;73.59;99916.22;5036316;28;20032;-79
2021/12/14 04:35:06;;;;;;;3.93;3.23;;;;;;;3.30;73.63;99968.63;5036483;28;20035;-79
2021/12/14 04:37:37;;;;;;;3.57;3.03;;;;;;;3.23;73.14;99957.00;5036756;28;20514;-78
2021/12/14 04:53:51;;;;;;;4.63;4.17;;;;;;;3.02;73.16;99919.56;5036176;28;20059;-79
2021/12/14 04:56:27;;;;;;;5.27;4.17;;;;;;;3.49;73.12;99976.63;5036242;28;20022;-78
2021/12/14 04:59:08;;;;;;;5.07;4.23;;;;;;;3.47;73.39;99978.53;5036191;28;20026;-78
2021/12/14 05:01:37;;;;;;;5.90;4.73;;;;;;;2.96;72.90;99899.97;5034498;28;20083;-78
2021/12/14 05:04:07;;;;;;;5.57;4.90;;;;;;;3.39;73.18;99983.53;5035400;28;20044;-78
2021/12/14 05:06:46;;;;;;;3.90;3.50;;;;;;;3.38;73.38;99988.88;5036081;28;20517;-77
2021/12/14 05:11:52;;;;;;;5.03;3.80;;;;;;;3.08;73.22;99932.94;5035879;28;20489;-77
2021/12/14 05:14:19;;;;;;;3.78;3.42;;;;;;;3.23;73.34;99969.22;5035822;28;20025;-77
2021/12/14 05:16:44;;;;;;;7.27;4.27;;;;;;;3.41;73.63;99991.25;5035739;28;20112;-77
2021/12/14 05:19:12;;;;;;;4.77;4.27;;;;;;;3.08;73.27;99929.50;5036149;28;20061;-78
2021/12/14 05:21:43;;;;;;;4.60;3.83;;;;;;;3.43;73.53;99999.78;5035024;28;20509;-77
2021/12/14 05:24:12;;;;;;;5.65;4.45;;;;;;;3.50;73.29;100008.78;5035366;28;20040;-80
2021/12/14 05:26:38;;;;;;;6.20;4.57;;;;;;;3.50;73.22;100016.63;5034406;28;20509;-80
2021/12/14 05:29:07;;;;;;;4.73;4.07;;;;;;;3.14;73.36;99942.91;5035096;28;20028;-80
2021/12/14 05:31:33;;;;;;;4.20;3.80;;;;;;;3.16;73.38;99953.22;5034234;28;20083;-80
2021/12/14 05:33:59;;;;;;;5.33;4.83;;;;;;;2.92;73.57;99923.81;5034086;28;20452;-80
2021/12/14 05:36:25;;;;;;;6.70;5.70;;;;;;;3.40;73.71;100019.13;5035273;28;20136;-80
2021/12/14 05:44:12;;;;;;;7.67;5.50;;;;;;;3.09;73.39;99970.31;5035743;28;20103;-80
2021/12/14 05:46:38;;;;;;;8.73;5.87;;;;;;;2.97;73.31;99953.81;5034437;28;20035;-80
2021/12/14 05:49:08;;;;;;;7.83;5.50;;;;;;;3.48;73.54;100015.91;5034733;28;20100;-80
2021/12/14 05:51:34;;;;;;;7.17;5.20;;;;;;;3.45;73.44;100017.00;5034738;28;20045;-80
2021/12/14 05:54:01;;;;;;;8.17;5.90;;;;;;;3.02;73.16;99967.34;5034989;28;20426;-80
2021/12/14 05:56:28;;;;;;;9.43;5.80;;;;;;;3.29;73.19;99987.00;5034797;28;20025;-80
2021/12/14 05:58:55;;;;;;;5.07;4.07;;;;;;;3.47;73.41;100020.31;5037867;28;20021;-80
2021/12/14 06:01:24;;;;;;;6.50;5.10;;;;;;;3.47;72.93;100022.09;5040160;28;20522;-80
2021/12/14 06:03:57;;;;;;;8.43;6.50;;;;;;;3.44;72.98;100025.78;5034449;28;20421;-80
2021/12/14 06:06:30;;;;;;;8.20;6.00;;;;;;;3.41;73.38;100023.41;5036557;28;20532;-79
2021/12/14 06:09:23;;;;;;;6.13;4.97;;;;;;;3.39;73.23;100021.88;5054386;28;20588;-80
2021/12/14 06:11:52;;;;;;;6.53;5.57;;;;;;;2.79;73.52;99940.41;5049474;28;20033;-80
2021/12/14 06:14:21;;;;;;;7.80;5.77;;;;;;;3.38;73.63;100026.25;5036170;28;20037;-80
2021/12/14 06:16:50;;;;;;;7.37;6.20;;;;;;;3.28;73.53;100012.28;5034763;28;20040;-80
2021/12/14 06:19:29;;;;;;;7.07;6.17;;;;;;;3.11;73.65;99990.09;5035822;28;20022;-79
2021/12/14 06:22:04;;;;;;;7.83;6.27;;;;;;;3.37;73.60;100029.81;5053269;28;20032;-80
2021/12/14 06:24:32;;;;;;;8.73;6.70;;;;;;;3.38;73.60;100025.44;5052885;28;20512;-78
2021/12/14 06:27:02;;;;;;;8.57;7.10;;;;;;;3.03;73.23;99963.78;5053947;28;20490;-77
2021/12/14 06:29:37;;;;;;;12.30;8.73;;;;;;;3.07;73.52;99978.25;5053653;28;20037;-78
2021/12/14 06:32:08;;;;;;;9.57;7.13;;;;;;;3.38;73.77;100033.25;5052818;28;20033;-77
2021/12/14 06:34:34;;;;;;;6.88;6.07;;;;;;;3.36;73.54;100036.00;5052845;28;20032;-78
2021/12/14 06:40:16;;;;;;;;;;;;;;;3.24;74.20;100028.28;5054553;28;20122;-78
2021/12/14 06:42:47;;;;;;;9.43;7.77;;;;;;;2.83;73.85;99941.84;5045649;28;19928;-79
2021/12/14 06:45:22;;;;;;;9.13;8.20;;;;;;;3.46;73.59;100033.47;5032127;28;20072;-79
2021/12/14 06:47:51;;;;;;;10.63;8.13;;;;;;;3.30;73.65;100014.75;5043401;28;20037;-77
2021/12/14 06:50:21;;;;;;;11.40;9.03;;;;;;;2.86;73.07;99941.59;5043429;28;20020;-79
2021/12/14 06:52:56;;;;;;;11.83;7.23;;;;;;;3.13;73.33;99982.16;5041354;28;20029;-78
2021/12/14 06:55:23;;;;;;;10.80;7.40;;;;;;;3.17;73.26;99991.41;5051052;28;20033;-77
2021/12/14 06:57:49;;;;;;;8.67;7.17;;;;;;;3.48;73.42;100037.63;5037610;28;20100;-78
2021/12/14 07:00:15;;;;;;;8.93;7.60;;;;;;;3.28;73.78;100008.84;5052834;28;20048;-78
2021/12/14 07:02:49;;;;;;;6.87;6.03;;;;;;;3.09;73.60;99978.97;5038510;28;20498;-78
2021/12/14 07:05:20;;;;;;;6.43;5.73;;;;;;;3.43;73.51;100036.34;5054150;28;20021;-77
2021/12/14 07:07:46;;;;;;;8.75;6.57;;;;;;;3.34;73.69;100014.41;5044137;28;20053;-79
2021/12/14 07:10:12;;;;;;;7.60;6.13;;;;;;;3.52;73.14;100046.06;5032931;28;20033;-78
2021/12/14 07:12:38;;;;;;;7.30;6.43;;;;;;;3.53;73.71;100052.94;5035493;28;20037;-79
2021/12/14 07:15:09;;;;;;;7.37;6.07;;;;;;;3.48;73.32;100052.47;5038090;28;20078;-78
2021/12/14 07:17:44;;;;;;;9.10;7.70;;;;;;;3.52;73.77;100051.28;5041216;28;20025;-78
2021/12/14 07:20:44;;;;;;;10.37;7.27;;;;;;;3.56;73.70;100049.25;5036223;28;20033;-79
2021/12/14 07:23:34;;;;;;;7.80;6.47;;;;;;;3.32;73.46;100015.47;5040061;28;20033;-79
2021/12/14 07:26:04;;;;;;;7.63;6.63;;;;;;;3.49;73.39;100051.50;5049630;28;20033;-79
2021/12/14 07:28:38;;;;;;;7.20;6.30;;;;;;;3.49;73.54;100048.91;5034065;28;20108;-79
2021/12/14 07:31:24;;;;;;;10.90;7.27;;;;;;;3.31;73.89;100040.75;5039577;28;20151;-79
2021/12/14 07:33:59;;;;;;;9.63;7.60;;;;;;;3.40;73.51;100063.50;5033427;28;20422;-78
2021/12/14 07:36:34;;;;;;;7.67;6.67;;;;;;;3.40;73.74;100055.69;5040029;28;20068;-79
2021/12/14 07:39:04;;;;;;;7.80;5.97;;;;;;;3.39;73.65;100055.78;5048945;28;20527;-79
2021/12/14 07:41:37;;;;;;;9.43;7.20;;;;;;;3.40;73.52;100060.91;5040356;28;20090;-78
2021/12/14 07:44:09;;;;;;;8.17;6.80;;;;;;;3.17;73.45;100022.72;5046394;28;20025;-79
2021/12/14 07:46:47;;;;;;;10.25;8.10;;;;;;;3.02;73.81;99993.44;5047278;28;20525;-79
2021/12/14 07:49:21;;;;;;;8.93;7.40;;;;;;;3.49;73.92;100064.56;5065142;28;20131;-79
2021/12/14 07:51:49;;;;;;;9.73;6.50;;;;;;;3.48;73.89;100074.19;5036402;28;20032;-78
2021/12/14 07:54:41;;;;;;;8.40;5.80;;;;;;;3.52;73.55;100069.53;5043149;28;20413;-78
2021/12/14 07:57:14;;;;;;;9.23;6.43;;;;;;;3.50;73.84;100072.28;5044542;28;20071;-78
2021/12/14 07:59:50;;;;;;;5.53;4.30;;;;;;;2.95;74.11;100018.28;5037662;28;20033;-78
2021/12/14 08:02:24;;;;;;;5.07;4.57;;;;;;;3.43;74.18;100075.50;5050339;28;20383;-77
2021/12/14 08:04:56;;;;;;;7.40;5.57;;;;;;;3.05;74.42;100039.31;5046230;28;20509;-78
2021/12/14 08:07:43;;;;;;;;;;;;;;;3.32;74.74;100088.53;5064946;28;20044;-77
2021/12/14 08:10:17;;;;;;;6.40;4.63;;;;;;;3.47;73.98;100090.78;5053680;28;19913;-78
2021/12/14 08:12:50;;;;;;;7.97;4.57;;;;;;;2.91;73.77;99996.00;5038136;28;20513;-77
2021/12/14 08:15:39;;;;;;;9.00;7.17;;;;;;;3.46;74.00;100096.97;5033399;28;20472;-78
2021/12/14 08:18:05;;;;;;;7.00;5.30;;;;;;;3.42;73.53;100100.75;5050051;28;20110;-78
2021/12/14 08:20:31;;;;;;;5.00;4.23;;;;;;;2.95;73.88;100047.00;5052047;28;20493;-79
2021/12/14 08:23:09;;;;;;;5.60;4.43;;;;;;;3.36;73.60;100085.56;5044728;28;20059;-78
2021/12/14 08:25:35;;;;;;;6.57;4.40;;;;;;;3.42;74.09;100081.66;5034245;28;20105;-79
2021/12/14 08:28:05;;;;;;;8.47;6.10;;;;;;;3.51;74.05;100099.22;5035432;28;20017;-78
2021/12/14 08:30:35;;;;;;;9.40;7.60;;;;;;;3.02;73.81;100018.69;5035525;28;20025;-78
2021/12/14 08:33:03;;;;;;;9.97;6.63;;;;;;;3.00;73.93;100012.75;5034031;28;20032;-78
2021/12/14 08:35:28;;;;;;;7.10;5.60;;;;;;;3.58;73.54;100089.97;5035097;28;20083;-77
2021/12/14 08:37:58;;;;;;;9.67;6.33;;;;;;;3.61;73.61;100084.50;5053146;28;20052;-77
2021/12/14 08:40:37;;;;;;;7.33;5.73;;;;;;;3.52;73.55;100082.59;5054816;28;20021;-78
2021/12/14 08:43:12;;;;;;;9.77;6.17;;;;;;;3.59;73.57;100088.16;5054040;28;20021;-78
2021/12/14 08:46:01;;;;;;;6.97;5.70;;;;;;;3.51;73.85;100073.09;5049365;28;20059;-78
2021/12/14 08:48:32;;;;;;;5.53;4.70;;;;;;;3.60;73.47;100079.38;5048428;28;20024;-79
2021/12/14 08:50:58;;;;;;;4.87;4.10;;;;;;;3.53;74.08;100080.81;5042780;28;20615;-78
2021/12/14 08:53:27;;;;;;;7.20;5.97;;;;;;;3.46;73.61;100064.81;5035034;28;20025;-77
2021/12/14 08:55:55;;;;;;;6.47;5.70;;;;;;;3.32;73.79;100031.13;5036020;28;20032;-78
2021/12/14 08:58:22;;;;;;;6.33;5.13;;;;;;;2.82;73.67;99942.78;5035445;28;20026;-78
2021/12/14 09:00:51;;;;;;;6.63;5.33;;;;;;;2.90;73.55;99951.78;5054662;28;20043;-77
2021/12/14 09:03:46;;;;;;;6.47;5.20;;;;;;;3.59;73.79;100068.13;5054665;28;20020;-78
2021/12/14 09:06:17;;;;;;;10.07;6.30;;;;;;;3.58;73.76;100068.25;5042254;28;20147;-78
2021/12/14 09:08:45;;;;;;;7.60;5.80;;;;;;;3.55;73.55;100052.81;5034991;28;20029;-78
2021/12/14 09:11:13;;;;;;;6.80;5.87;;;;;;;3.42;74.10;100032.06;5036112;28;20026;-77
2021/12/14 09:13:39;;;;;;;6.43;4.87;;;;;;;3.35;74.01;100025.66;5042403;28;20021;-78
2021/12/14 09:16:13;;;;;;;8.87;5.70;;;;;;;3.51;74.22;100063.50;5052286;28;20035;-79
2021/12/14 09:18:51;;;;;;;9.53;7.20;;;;;;;3.53;73.83;100050.31;5034776;28;20026;-79
2021/12/14 09:21:21;;;;;;;7.53;5.30;;;;;;;3.21;73.92;100013.69;5050703;28;20173;-78
2021/12/14 09:23:51;;;;;;;6.40;5.63;;;;;;;3.29;74.07;100016.53;5041627;28;20028;-78
2021/12/14 09:26:24;;;;;;;9.60;6.67;;;;;;;3.61;73.71;100041.88;5034820;28;20171;-78
2021/12/14 09:28:50;;;;;;;7.30;6.60;;;;;;;3.62;73.76;100078.31;5038235;28;20487;-78
2021/12/14 09:31:20;;;;;;;6.10;5.20;;;;;;;3.23;73.91;99985.72;5053888;28;20017;-78
2021/12/14 09:33:48;;;;;;;6.10;5.50;;;;;;;3.60;73.97;100051.50;5034294;28;20025;-79
2021/12/14 09:36:14;;;;;;;5.33;4.73;;;;;;;3.24;73.81;99981.31;5044059;28;20045;-78
2021/12/14 09:38:49;;;;;;;4.83;4.13;;;;;;;3.56;73.93;100037.03;5034880;28;20112;-79
2021/12/14 09:41:21;;;;;;;4.10;3.70;;;;;;;3.21;73.63;99985.00;5040059;28;20025;-78
2021/12/14 09:43:52;;;;;;;6.37;5.23;;;;;;;3.60;73.87;100030.59;5048741;28;20021;-78
2021/12/14 09:46:19;;;;;;;6.00;5.40;;;;;;;3.23;74.01;99979.66;5054046;28;20032;-77
2021/12/14 09:48:56;;;;;;;6.50;4.97;;;;;;;3.49;73.96;100026.25;5051449;28;20021;-79
2021/12/14 09:51:44;;;;;;;8.13;6.07;;;;;;;3.26;73.88;99979.41;5054133;28;20047;-78
2021/12/14 09:54:16;;;;;;;7.37;5.93;;;;;;;3.58;73.99;100021.25;5051524;28;20071;-79
2021/12/14 09:57:10;;;;;;;9.00;7.10;;;;;;;3.53;74.25;100023.38;5054592;28;20045;-79
2021/12/14 09:59:37;;;;;;;7.10;5.10;;;;;;;3.17;74.35;99960.09;5033008;28;20035;-79
2021/12/14 10:02:06;;;;;;;8.73;5.27;;;;;;;3.22;73.89;99967.56;5031914;28;20053;-79
2021/12/14 10:04:38;;;;;;;7.23;6.40;;;;;;;3.07;74.23;99954.78;5040693;28;20032;-79
2021/12/14 10:07:08;;;;;;;9.10;6.90;;;;;;;2.49;74.12;99844.56;5048230;28;20044;-79
2021/12/14 10:09:40;;;;;;;6.53;5.10;;;;;;;3.08;73.96;99955.59;5051835;28;20612;-80
2021/12/14 10:14:48;;;;;;;8.03;6.70;;;;;;;3.42;74.29;100004.19;5054808;28;20040;-79
2021/12/14 10:17:15;;;;;;;5.73;4.30;;;;;;;2.77;74.38;99910.19;5054671;28;20051;-79
2021/12/14 10:19:44;;;;;;;7.30;4.93;;;;;;;2.92;74.60;99919.44;5053365;28;20481;-79
2021/12/14 10:22:17;;;;;;;5.30;4.70;;;;;;;3.45;74.70;100013.56;5039034;28;20025;-79
2021/12/14 10:24:42;;;;;;;4.90;3.63;;;;;;;3.58;74.25;100026.47;5039246;28;20087;-80
2021/12/14 10:27:15;;;;;;;5.60;4.87;;;;;;;2.97;74.08;99917.28;5053874;28;20028;-80
2021/12/14 10:29:42;;;;;;;6.77;5.90;;;;;;;3.05;74.38;99941.03;5041804;28;20115;-80
2021/12/14 10:32:12;;;;;;;9.87;7.63;;;;;;;1.92;74.08;99743.91;5051483;28;20067;-80
2021/12/14 10:34:45;;;;;;;10.27;7.10;;;;;;;2.97;74.29;99896.41;5034867;28;20025;-80
2021/12/14 10:37:23;;;;;;;7.97;6.00;;;;;;;3.69;74.27;100008.16;5033583;28;20038;-81
2021/12/14 10:45:20;;;;;;;7.00;6.10;;;;;;;3.74;74.38;100025.16;5035860;28;20049;-80
2021/12/14 10:47:46;;;;;;;7.00;4.80;;;;;;;3.37;74.18;99977.63;5042592;28;20494;-79
2021/12/14 10:50:16;;;;;;;7.83;5.40;;;;;;;3.70;74.02;100017.66;5043613;28;20029;-79
2021/12/14 10:52:43;;;;;;;5.00;4.50;;;;;;;3.70;74.02;100004.59;5047867;28;20429;-80
2021/12/14 10:55:15;;;;;;;5.50;4.90;;;;;;;3.44;74.01;99965.75;5052236;28;20017;-80
2021/12/14 10:57:41;;;;;;;;;;;;;;;3.59;74.47;100015.91;5033935;28;20037;-80
2021/12/14 11:00:28;;;;;;;7.50;5.63;;;;;;;3.50;74.40;99982.69;5032875;28;19978;-80
2021/12/14 11:02:53;;;;;;;7.70;5.80;;;;;;;3.18;73.97;99909.56;5042601;28;20406;-80
2021/12/14 11:05:19;;;;;;;7.90;6.53;;;;;;;3.68;73.90;99996.06;5038356;28;20021;-80
2021/12/14 11:07:47;;;;;;;9.63;6.87;;;;;;;3.58;73.76;99972.47;5047419;28;20029;-80
2021/12/14 11:10:22;;;;;;;8.33;6.60;;;;;;;3.89;73.76;100009.19;5048401;28;20021;-80
2021/12/14 11:12:53;;;;;;;11.57;8.37;;;;;;;3.87;74.18;100004.09;5035615;28;20036;-80
2021/12/14 11:15:42;;;;;;;7.60;5.87;;;;;;;3.83;73.68;99998.28;5034732;28;20029;-80
2021/12/14 11:18:30;;;;;;;8.30;6.07;;;;;;;3.53;73.76;99961.56;5042816;28;20056;-80
2021/12/14 11:21:01;;;;;;;8.33;6.23;;;;;;;3.99;74.18;100007.50;5033793;28;20048;-79
2021/12/14 11:23:40;;;;;;;6.35;5.03;;;;;;;3.54;74.07;99936.28;5038195;28;20466;-78
2021/12/14 11:26:14;;;;;;;5.07;4.57;;;;;;;4.10;73.73;99999.63;5043058;28;20035;-78
2021/12/14 11:28:41;;;;;;;5.77;5.03;;;;;;;4.06;73.97;99996.41;5048544;28;20056;-79
2021/12/14 11:31:29;;;;;;;6.47;5.37;;;;;;;3.98;73.48;99990.16;5032959;28;20025;-78
2021/12/14 11:34:18;;;;;;;7.73;6.07;;;;;;;4.04;73.76;100002.72;5054216;28;20047;-78
2021/12/14 11:36:58;;;;;;;12.17;8.90;;;;;;;4.01;73.78;100006.41;5036775;28;20098;-78
2021/12/14 11:39:30;;;;;;;11.40;9.33;;;;;;;3.77;74.13;99966.63;5038711;28;20108;-78
2021/12/14 11:42:07;;;;;;;8.10;6.17;;;;;;;4.07;73.66;100008.53;5034352;28;20025;-78
2021/12/14 11:44:37;;;;;;;7.10;6.40;;;;;;;4.05;73.91;100012.22;5035199;28;20022;-79
2021/12/14 11:47:23;;;;;;;5.10;4.60;;;;;;;4.02;73.68;100004.63;5032516;28;20410;-79
2021/12/14 11:49:55;;;;;;;4.90;4.40;;;;;;;3.54;73.61;99942.34;5047167;28;20078;-79
2021/12/14 11:53:02;;;;;;;4.27;3.87;;;;;;;3.79;73.79;100004.72;5042428;28;20021;-78
2021/12/14 11:55:42;;;;;;;7.50;6.73;;;;;;;3.80;73.80;100000.31;5048276;28;20105;-79
2021/12/14 11:58:31;;;;;;;6.77;5.73;;;;;;;3.76;74.26;99996.31;5045076;28;20104;-78
2021/12/14 12:01:31;;;;;;;7.13;5.93;;;;;;;3.55;74.09;99967.50;5041432;28;20061;-78
2021/12/14 12:04:07;;;;;;;12.80;8.30;;;;;;;3.81;74.39;99991.53;5048813;28;20020;-78
2021/12/14 12:06:45;;;;;;;7.33;5.90;;;;;;;3.81;73.98;99991.53;5070065;28;20029;-79
2021/12/14 12:09:35;;;;;;;8.63;7.17;;;;;;;3.79;74.23;99991.66;5037502;28;20494;-78
2021/12/14 12:12:03;;;;;;;10.00;8.00;;;;;;;3.83;74.43;99995.69;5052228;28;20048;-78
2021/12/14 12:14:32;;;;;;;9.47;7.77;;;;;;;3.89;73.83;99991.75;5056327;28;20021;-78
2021/12/14 12:17:19;;;;;;;6.13;5.53;;;;;;;3.88;73.81;99987.47;5055890;28;20023;-78
2021/12/14 12:20:02;;;;;;;6.53;4.93;;;;;;;3.89;73.94;99986.53;5053815;28;20071;-78
2021/12/14 12:22:53;;;;;;;9.63;7.77;;;;;;;3.67;73.89;99955.22;5053609;28;20267;-78
2021/12/14 12:25:35;;;;;;;7.13;6.27;;;;;;;3.38;74.12;99926.25;5003612;28;20068;-77
2021/12/14 12:28:12;;;;;;;7.67;5.97;;;;;;;3.81;74.26;99981.91;5036602;28;20047;-77
2021/12/14 12:30:55;;;;;;;8.27;6.60;;;;;;;3.54;74.25;99937.13;5039247;28;20608;-78
2021/12/14 12:33:35;;;;;;;10.13;7.43;;;;;;;3.86;73.72;99992.00;5040054;28;20048;-77
2021/12/14 12:36:15;;;;;;;7.70;6.30;;;;;;;3.69;74.45;99972.44;5034749;28;20104;-77
2021/12/14 12:38:50;;;;;;;8.73;6.77;;;;;;;3.35;74.03;99911.66;5031399;28;20491;-77
2021/12/14 12:41:26;;;;;;;9.17;6.80;;;;;;;3.75;74.66;99984.19;5018152;28;20028;-76
2021/12/14 12:44:21;;;;;;;7.13;5.53;;;;;;;3.74;74.58;99979.94;5024328;28;20115;-76
2021/12/14 12:47:00;;;;;;;7.90;6.40;;;;;;;3.70;74.69;99983.72;5024642;28;20402;-76